Time;durP1;ratioP1;P1;durP2;ratioP2;P2;SDS_P1;SDS_P2;PMS_P1;PMS_P2;Temp;Humidity;BMP_temperature;BMP_pressure;BME280_temperature;BME280_humidity;BME280_pressure;Samples;Min_cycle;Max_cycle;Signal;HPM_P1;HPM_P2
2023/10/06 00:00:50;;;;;;;3.92;1.38;;;22.50;79.20;;;;;;10484812;28;20114;-36
2023/10/06 00:05:53;;;;;;;3.97;1.20;;;22.40;79.60;;;;;;10504371;28;20491;-39
2023/10/06 00:10:55;;;;;;;3.78;1.75;;;22.00;81.80;;;;;;10511282;28;20048;-36
2023/10/06 00:15:59;;;;;;;;;;;22.20;80.50;;;;;;10500506;28;20056;-33
2023/10/06 00:21:05;;;;;;;4.63;1.30;;;22.40;79.90;;;;;;10503748;28;19924;-33
2023/10/06 00:26:16;;;;;;;4.57;1.45;;;22.50;79.20;;;;;;10496019;28;20070;-40
2023/10/06 00:31:19;;;;;;;4.45;1.20;;;22.10;80.90;;;;;;10509353;28;20040;-31
2023/10/06 00:36:28;;;;;;;3.15;1.63;;;22.40;79.50;;;;;;10494346;28;20052;-34
2023/10/06 00:41:31;;;;;;;6.07;1.48;;;22.20;80.80;;;;;;10493745;28;20053;-31
2023/10/06 00:46:35;;;;;;;2.85;1.33;;;22.10;81.00;;;;;;10494925;28;20398;-33
2023/10/06 00:51:41;;;;;;;8.52;2.03;;;22.40;79.60;;;;;;10484998;28;20072;-29
2023/10/06 00:56:43;;;;;;;6.47;2.20;;;21.30;83.40;;;;;;10470902;28;20063;-34
2023/10/06 01:01:46;;;;;;;7.90;1.73;;;21.30;85.80;;;;;;10493598;28;20056;-29
2023/10/06 01:06:48;;;;;;;3.25;1.30;;;20.90;88.00;;;;;;10491876;28;20072;-42
2023/10/06 01:11:51;;;;;;;2.22;1.05;;;21.50;85.30;;;;;;10486458;28;20130;-32
2023/10/06 01:17:09;;;;;;;4.10;1.45;;;21.30;87.40;;;;;;10485966;28;20097;-41
2023/10/06 01:22:22;;;;;;;2.42;1.10;;;21.50;85.50;;;;;;10497933;28;20048;-30
2023/10/06 01:27:26;;;;;;;2.15;1.05;;;21.70;85.00;;;;;;10500026;28;20040;-33
2023/10/06 01:32:28;;;;;;;3.47;1.38;;;21.20;87.00;;;;;;10495783;28;20070;-31
2023/10/06 01:37:31;;;;;;;;;;;21.80;83.60;;;;;;10496784;28;20054;-31
2023/10/06 01:42:35;;;;;;;4.82;1.20;;;21.50;85.20;;;;;;10483518;28;19955;-33
2023/10/06 01:47:36;;;;;;;3.67;1.40;;;21.30;86.50;;;;;;10477470;28;20068;-31
2023/10/06 01:52:40;;;;;;;2.70;1.13;;;21.30;86.80;;;;;;10489552;28;20080;-36
2023/10/06 01:57:44;;;;;;;3.55;1.35;;;21.20;86.30;;;;;;10481422;28;20055;-36
2023/10/06 02:02:50;;;;;;;4.80;1.73;;;20.90;90.40;;;;;;10493043;28;20101;-40
2023/10/06 02:08:00;;;;;;;4.95;1.65;;;20.90;89.00;;;;;;10491321;28;20045;-40
2023/10/06 02:13:02;;;;;;;5.00;1.52;;;21.00;87.40;;;;;;10503198;28;20102;-32
2023/10/06 02:18:07;;;;;;;;;;;20.80;88.60;;;;;;10495562;28;20083;-31
2023/10/06 02:23:10;;;;;;;8.55;2.53;;;21.20;87.50;;;;;;10487076;28;19920;-32
2023/10/06 02:28:14;;;;;;;4.50;1.48;;;21.30;85.00;;;;;;10498636;28;20068;-36
2023/10/06 02:33:16;;;;;;;5.38;1.98;;;20.70;89.60;;;;;;10493760;28;20040;-38
2023/10/06 02:38:20;;;;;;;4.68;1.30;;;21.00;88.60;;;;;;10493709;28;20063;-34
2023/10/06 02:43:23;;;;;;;3.42;1.35;;;21.20;87.30;;;;;;10503265;28;20465;-30
2023/10/06 02:48:32;;;;;;;1.77;0.85;;;21.60;85.50;;;;;;10482093;28;20512;-36
2023/10/06 02:53:36;;;;;;;6.78;1.98;;;21.50;84.90;;;;;;10485004;28;20059;-36
2023/10/06 03:15:35;;;;;;;2.83;1.38;;;20.40;90.50;;;;;;10506296;27;20111;-35
2023/10/06 03:20:46;;;;;;;6.80;2.00;;;20.60;89.70;;;;;;10483692;28;20132;-34
2023/10/06 03:25:52;;;;;;;3.67;1.70;;;20.10;91.80;;;;;;10487267;28;20048;-36
2023/10/06 03:30:55;;;;;;;7.43;1.67;;;20.80;87.30;;;;;;10480781;28;20115;-37
2023/10/06 03:35:57;;;;;;;5.28;1.10;;;20.70;88.80;;;;;;10483257;28;20462;-34
2023/10/06 03:46:20;;;;;;;3.20;1.50;;;20.60;91.00;;;;;;10465940;28;20057;-30
2023/10/06 03:51:22;;;;;;;3.85;1.30;;;20.10;92.50;;;;;;10481782;28;20080;-31
2023/10/06 03:56:23;;;;;;;5.15;1.40;;;20.30;91.30;;;;;;10481433;28;20116;-33
2023/10/06 04:01:27;;;;;;;3.72;1.00;;;20.50;90.70;;;;;;10485205;28;20049;-32
2023/10/06 04:06:35;;;;;;;3.55;1.50;;;20.80;90.00;;;;;;10481632;28;20041;-36
2023/10/06 04:11:36;;;;;;;5.53;2.15;;;20.20;92.10;;;;;;10478267;28;20083;-34
2023/10/06 04:16:45;;;;;;;6.38;1.30;;;20.20;91.60;;;;;;10478301;28;20044;-32
2023/10/06 04:21:49;;;;;;;9.93;1.85;;;19.90;93.20;;;;;;10474955;28;20080;-31
2023/10/06 04:26:51;;;;;;;4.78;1.52;;;20.00;92.70;;;;;;10454111;28;20073;-32
2023/10/06 04:31:55;;;;;;;8.20;1.83;;;20.40;91.60;;;;;;10455980;28;20138;-43
2023/10/06 04:36:56;;;;;;;4.85;2.00;;;20.60;90.40;;;;;;10467223;28;20493;-32
2023/10/06 04:42:00;;;;;;;8.30;1.88;;;20.40;91.10;;;;;;10454781;28;20090;-34
2023/10/06 04:47:08;;;;;;;6.78;2.08;;;20.10;92.30;;;;;;10455128;28;20048;-36
2023/10/06 04:52:10;;;;;;;6.63;2.17;;;20.00;93.00;;;;;;10453284;28;20067;-36
2023/10/06 04:57:11;;;;;;;7.10;2.28;;;19.60;93.40;;;;;;10450624;28;20061;-33
2023/10/06 05:02:15;;;;;;;4.85;1.73;;;20.30;91.90;;;;;;10459642;28;20535;-35
2023/10/06 05:07:17;;;;;;;11.00;2.85;;;20.00;92.30;;;;;;10460885;28;20106;-38
2023/10/06 05:12:18;;;;;;;9.88;2.38;;;19.80;92.80;;;;;;10450095;28;20061;-34
2023/10/06 05:17:22;;;;;;;3.13;1.60;;;19.80;94.10;;;;;;10458893;28;20482;-34
2023/10/06 05:22:23;;;;;;;5.07;1.60;;;20.60;90.50;;;;;;10461750;28;20045;-35
2023/10/06 05:27:25;;;;;;;4.60;1.60;;;20.20;91.90;;;;;;10451336;28;20052;-33
2023/10/06 05:32:28;;;;;;;14.20;2.42;;;20.90;89.80;;;;;;10445376;28;20150;-39
2023/10/06 05:37:32;;;;;;;6.95;1.65;;;20.00;92.30;;;;;;10440494;28;20064;-37
2023/10/06 05:42:36;;;;;;;5.45;1.90;;;20.10;91.90;;;;;;10447193;28;21768;-40
2023/10/06 05:47:39;;;;;;;8.23;2.60;;;19.90;92.90;;;;;;10446986;28;20071;-39
2023/10/06 05:52:41;;;;;;;6.70;1.95;;;19.80;93.80;;;;;;10442480;28;20547;-34
2023/10/06 05:57:51;;;;;;;13.60;2.70;;;20.10;93.10;;;;;;10448388;28;20048;-37
2023/10/06 06:02:58;;;;;;;5.95;1.88;;;20.00;93.20;;;;;;10458335;28;20069;-30
2023/10/06 06:08:00;;;;;;;6.30;2.40;;;20.30;92.60;;;;;;10435791;28;20071;-30
2023/10/06 06:13:03;;;;;;;;;;;19.40;95.00;;;;;;10448289;28;20136;-30
2023/10/06 06:18:08;;;;;;;;;;;18.20;99.90;;;;;;10446651;28;19936;-34
2023/10/06 06:23:12;;;;;;;9.52;2.17;;;18.00;99.90;;;;;;10445549;28;20019;-39
2023/10/06 06:28:14;;;;;;;10.15;2.67;;;18.20;99.90;;;;;;10452150;28;20052;-43
2023/10/06 06:33:22;;;;;;;10.27;2.92;;;18.20;99.90;;;;;;10444013;28;20405;-37
2023/10/06 06:38:25;;;;;;;9.70;2.78;;;17.30;99.90;;;;;;10460477;28;20048;-31
2023/10/06 06:43:27;;;;;;;10.70;3.90;;;17.80;99.90;;;;;;10446369;28;20048;-34
2023/10/06 06:48:30;;;;;;;6.20;2.42;;;17.10;99.90;;;;;;10448178;28;20512;-37
2023/10/06 06:53:31;;;;;;;11.38;4.28;;;17.60;99.90;;;;;;10455703;28;20545;-32
2023/10/06 06:58:35;;;;;;;9.00;2.67;;;17.10;99.90;;;;;;10443745;28;20049;-39
2023/10/06 07:03:38;;;;;;;7.10;2.05;;;17.40;99.90;;;;;;10447220;28;20064;-36
2023/10/06 07:08:40;;;;;;;14.73;3.70;;;18.40;99.90;;;;;;10439323;28;20080;-30
2023/10/06 07:13:42;;;;;;;13.73;3.17;;;17.50;99.90;;;;;;10443817;28;20517;-30
2023/10/06 07:18:46;;;;;;;8.75;1.95;;;18.60;99.90;;;;;;10441824;28;20049;-42
2023/10/06 07:23:51;;;;;;;7.57;2.67;;;19.10;97.70;;;;;;10444919;28;20063;-31
2023/10/06 07:28:54;;;;;;;10.05;2.35;;;19.20;97.80;;;;;;10448750;28;20044;-36
2023/10/06 07:33:57;;;;;;;;;;;19.50;97.20;;;;;;10444615;28;20088;-29
2023/10/06 07:38:59;;;;;;;9.15;3.45;;;19.00;99.30;;;;;;10460319;28;19929;-36
2023/10/06 07:44:01;;;;;;;8.32;2.13;;;19.60;97.40;;;;;;10437308;28;20041;-37
2023/10/06 07:49:05;;;;;;;12.02;2.55;;;19.90;96.00;;;;;;10446242;28;20041;-32
2023/10/06 07:54:08;;;;;;;14.00;2.90;;;19.90;96.60;;;;;;10446171;28;20394;-33
2023/10/06 07:59:10;;;;;;;10.73;2.60;;;19.50;97.40;;;;;;10447299;28;20037;-33
2023/10/06 08:04:13;;;;;;;7.95;2.63;;;19.60;97.90;;;;;;10436568;28;20054;-29
2023/10/06 08:09:17;;;;;;;12.40;2.58;;;19.90;97.20;;;;;;10438796;28;20045;-39
2023/10/06 08:14:18;;;;;;;15.80;3.70;;;18.50;99.90;;;;;;10444995;28;20057;-40
2023/10/06 08:19:22;;;;;;;18.37;3.43;;;18.00;99.90;;;;;;10447591;28;20044;-34
2023/10/06 08:24:26;;;;;;;13.88;2.13;;;18.20;99.90;;;;;;10451699;28;20463;-36
2023/10/06 08:29:29;;;;;;;10.65;2.67;;;18.60;99.90;;;;;;10456948;28;20068;-36
2023/10/06 08:34:33;;;;;;;10.48;3.40;;;18.10;99.90;;;;;;10453798;28;20076;-35
2023/10/06 08:39:39;;;;;;;12.32;2.40;;;18.50;99.90;;;;;;10454383;28;20402;-38
2023/10/06 08:44:41;;;;;;;9.18;2.10;;;18.60;99.90;;;;;;10458051;28;20072;-44
2023/10/06 08:49:48;;;;;;;12.15;3.40;;;18.60;99.90;;;;;;10451985;28;20060;-39
2023/10/06 08:54:49;;;;;;;13.90;3.03;;;18.60;99.90;;;;;;10457989;28;20075;-32
2023/10/06 08:59:51;;;;;;;16.65;3.05;;;18.50;99.90;;;;;;10454144;28;20095;-30
2023/10/06 09:04:54;;;;;;;11.40;2.47;;;18.90;99.90;;;;;;10448138;28;20490;-31
2023/10/06 09:09:56;;;;;;;14.18;3.22;;;18.30;99.90;;;;;;10441773;28;20044;-39
2023/10/06 09:14:59;;;;;;;12.30;2.50;;;18.40;99.90;;;;;;10443598;28;20065;-33
2023/10/06 09:20:04;;;;;;;23.77;4.30;;;18.50;99.90;;;;;;10451411;28;20053;-30
2023/10/06 09:25:07;;;;;;;11.55;2.70;;;18.10;99.90;;;;;;10440816;28;20045;-39
2023/10/06 09:30:11;;;;;;;24.27;4.03;;;18.60;99.90;;;;;;10456071;28;20041;-33
2023/10/06 09:35:22;;;;;;;15.20;3.60;;;18.40;99.90;;;;;;10452187;28;20095;-44
2023/10/06 09:40:24;;;;;;;15.10;2.97;;;19.20;99.90;;;;;;10442973;28;20052;-31
2023/10/06 09:45:29;;;;;;;17.27;3.30;;;18.80;99.90;;;;;;10446217;28;20053;-33
2023/10/06 09:50:34;;;;;;;11.48;3.28;;;18.70;99.90;;;;;;10447809;28;20445;-42
2023/10/06 09:55:36;;;;;;;12.45;2.58;;;18.50;99.90;;;;;;10444588;28;20060;-30
2023/10/06 10:00:40;;;;;;;14.85;3.50;;;19.00;99.90;;;;;;10445644;28;20056;-30
2023/10/06 10:05:45;;;;;;;12.23;2.88;;;19.40;99.90;;;;;;10449355;28;20048;-37
2023/10/06 10:10:49;;;;;;;24.20;3.85;;;18.90;99.90;;;;;;10456183;28;20184;-44
2023/10/06 10:16:06;;;;;;;15.55;2.72;;;18.70;99.90;;;;;;10447068;28;20076;-32
2023/10/06 10:21:11;;;;;;;17.83;3.03;;;19.40;99.90;;;;;;10445214;28;20048;-37
2023/10/06 10:26:22;;;;;;;13.70;3.78;;;18.70;99.90;;;;;;10441914;28;20041;-34
2023/10/06 10:31:23;;;;;;;13.63;3.42;;;18.60;99.90;;;;;;10445193;28;20045;-41
2023/10/06 10:36:27;;;;;;;16.47;3.10;;;18.50;99.90;;;;;;10445202;28;20056;-34
2023/10/06 10:41:35;;;;;;;19.35;3.28;;;18.70;99.90;;;;;;10444129;28;20476;-46
2023/10/06 10:46:41;;;;;;;29.02;3.75;;;19.10;99.90;;;;;;10436479;28;20128;-36
2023/10/06 10:51:53;;;;;;;17.23;3.53;;;18.70;99.90;;;;;;10449287;28;20135;-36
2023/10/06 10:57:02;;;;;;;26.17;4.60;;;18.90;99.90;;;;;;10437164;28;20057;-56
2023/10/06 11:02:08;;;;;;;19.52;4.90;;;18.80;99.90;;;;;;10446377;28;20491;-38
2023/10/06 11:07:13;;;;;;;13.68;2.63;;;18.80;99.90;;;;;;10444146;28;20663;-30
2023/10/06 11:12:24;;;;;;;25.73;3.95;;;19.10;99.90;;;;;;10447514;28;20052;-39
2023/10/06 11:17:29;;;;;;;27.13;4.03;;;19.20;99.90;;;;;;10442104;28;20054;-32
2023/10/06 11:22:33;;;;;;;18.92;3.22;;;19.00;99.90;;;;;;10449373;28;20535;-30
2023/10/06 11:27:37;;;;;;;23.42;3.55;;;19.20;99.90;;;;;;10446054;28;20049;-37
2023/10/06 11:32:40;;;;;;;19.38;3.08;;;19.50;99.90;;;;;;10445773;28;20081;-40
2023/10/06 11:37:43;;;;;;;20.02;3.35;;;19.40;99.90;;;;;;10450174;28;20055;-34
2023/10/06 11:42:45;;;;;;;16.55;2.85;;;19.20;99.90;;;;;;10457260;28;20136;-39
2023/10/06 11:47:47;;;;;;;22.57;3.70;;;19.40;99.90;;;;;;10467119;28;20045;-39
2023/10/06 11:52:50;;;;;;;17.77;2.60;;;19.40;99.90;;;;;;10455548;28;20498;-44
2023/10/06 11:57:52;;;;;;;19.40;3.47;;;20.20;99.90;;;;;;10452710;28;20102;-28
2023/10/06 12:02:54;;;;;;;16.98;3.72;;;20.00;99.90;;;;;;10449172;28;20052;-34
2023/10/06 12:08:03;;;;;;;16.73;3.13;;;20.00;99.90;;;;;;10450318;28;20131;-30
2023/10/06 12:13:10;;;;;;;23.60;6.47;;;19.80;99.90;;;;;;10447558;28;20099;-31
2023/10/06 12:18:12;;;;;;;24.10;3.95;;;19.70;99.90;;;;;;10450133;28;20118;-32
2023/10/06 12:23:15;;;;;;;13.80;2.60;;;19.70;99.90;;;;;;10451734;28;20079;-36
2023/10/06 12:28:17;;;;;;;15.52;3.45;;;19.80;99.90;;;;;;10463823;28;20049;-35
2023/10/06 12:33:19;;;;;;;22.75;4.35;;;20.30;99.90;;;;;;10453613;28;20067;-36
2023/10/06 12:38:23;;;;;;;15.07;3.10;;;19.80;99.90;;;;;;10450400;28;20102;-36
2023/10/06 12:43:24;;;;;;;20.50;3.63;;;20.40;99.90;;;;;;10453662;28;20048;-34
2023/10/06 12:48:26;;;;;;;26.98;7.60;;;19.70;99.90;;;;;;10451874;28;20103;-37
2023/10/06 12:53:33;;;;;;;14.57;3.53;;;19.90;99.90;;;;;;10453311;28;20477;-38
2023/10/06 12:58:35;;;;;;;12.20;3.20;;;19.90;99.90;;;;;;10447918;28;20045;-31
2023/10/06 13:03:37;;;;;;;22.98;3.38;;;20.10;99.90;;;;;;10448694;28;20088;-31
2023/10/06 13:08:40;;;;;;;17.67;3.22;;;20.50;99.90;;;;;;10454463;28;20060;-42
2023/10/06 13:13:48;;;;;;;29.00;4.75;;;20.40;99.90;;;;;;10451952;28;20087;-31
2023/10/06 13:18:50;;;;;;;16.05;2.70;;;20.10;99.90;;;;;;10443179;28;20379;-41
2023/10/06 13:23:57;;;;;;;14.25;2.83;;;20.20;99.90;;;;;;10457681;28;20084;-35
2023/10/06 13:28:59;;;;;;;23.83;3.97;;;20.60;99.90;;;;;;10449874;28;20943;-31
2023/10/06 13:34:02;;;;;;;14.25;2.67;;;20.60;99.90;;;;;;10445694;28;20128;-44
2023/10/06 13:39:09;;;;;;;20.10;3.47;;;20.50;99.90;;;;;;10446061;28;20525;-29
2023/10/06 13:44:11;;;;;;;14.02;2.65;;;21.00;99.90;;;;;;10445646;28;20445;-30
2023/10/06 13:49:13;;;;;;;21.42;3.45;;;20.80;99.90;;;;;;10451092;28;20049;-30
2023/10/06 13:54:18;;;;;;;17.42;2.67;;;21.30;99.90;;;;;;10448645;28;20057;-33
2023/10/06 13:59:21;;;;;;;21.88;3.55;;;21.10;99.90;;;;;;10445005;28;20053;-35
2023/10/06 14:04:23;;;;;;;15.65;3.30;;;21.20;99.90;;;;;;10450751;28;20037;-34
2023/10/06 14:09:26;;;;;;;;;;;21.60;99.60;;;;;;10454029;28;20033;-30
2023/10/06 14:19:55;;;;;;;16.67;2.80;;;21.50;99.30;;;;;;10432932;28;20049;-31
2023/10/06 14:24:59;;;;;;;15.25;2.55;;;21.20;99.90;;;;;;10447211;28;20478;-28
2023/10/06 14:30:01;;;;;;;14.32;3.28;;;21.50;99.40;;;;;;10436792;28;20136;-43
2023/10/06 14:35:22;;;;;;;18.00;3.05;;;21.40;99.30;;;;;;10452314;28;20054;-30
2023/10/06 14:46:00;;;;;;;18.75;3.13;;;20.60;99.90;;;;;;10442810;28;20057;-33
2023/10/06 14:51:03;;;;;;;13.23;3.53;;;20.60;99.90;;;;;;10437033;28;20052;-42
2023/10/06 14:56:06;;;;;;;10.88;2.65;;;20.50;99.90;;;;;;10441700;28;20607;-56
2023/10/06 15:01:12;;;;;;;18.52;3.00;;;20.60;99.90;;;;;;10445364;28;20536;-35
2023/10/06 15:06:13;;;;;;;12.57;2.42;;;20.40;99.90;;;;;;10441665;28;20474;-39
2023/10/06 15:11:17;;;;;;;13.63;3.13;;;20.00;99.90;;;;;;10444919;28;20446;-40
2023/10/06 15:16:19;;;;;;;14.70;2.35;;;20.00;99.90;;;;;;10439825;28;20135;-40
2023/10/06 15:21:23;;;;;;;11.98;2.83;;;20.50;99.90;;;;;;10432894;28;20041;-33
2023/10/06 15:26:26;;;;;;;19.50;3.10;;;20.70;99.90;;;;;;10433373;28;20156;-31
2023/10/06 15:31:28;;;;;;;18.60;3.35;;;20.10;99.90;;;;;;10442489;28;20056;-41
2023/10/06 15:36:30;;;;;;;14.15;3.00;;;20.00;99.90;;;;;;10450422;28;20055;-33
2023/10/06 15:41:33;;;;;;;19.90;4.18;;;20.00;99.90;;;;;;10442054;28;20045;-39
2023/10/06 15:46:36;;;;;;;13.90;3.20;;;19.90;99.90;;;;;;10437233;28;20152;-30
2023/10/06 15:51:40;;;;;;;14.50;3.00;;;20.30;99.90;;;;;;10445674;28;20577;-35
2023/10/06 15:56:43;;;;;;;19.27;3.65;;;20.00;99.90;;;;;;10442007;28;20700;-37
2023/10/06 16:01:47;;;;;;;14.82;2.70;;;19.60;99.90;;;;;;10436415;28;20398;-39
2023/10/06 16:06:48;;;;;;;15.05;2.42;;;19.70;99.90;;;;;;10442632;28;20049;-44
2023/10/06 16:11:51;;;;;;;16.00;2.90;;;20.10;99.90;;;;;;10443685;28;20465;-41
2023/10/06 16:16:53;;;;;;;19.58;2.58;;;19.80;99.90;;;;;;10431816;28;20801;-34
2023/10/06 16:21:55;;;;;;;12.85;2.60;;;19.70;99.90;;;;;;10447504;28;20506;-40
2023/10/06 16:26:58;;;;;;;20.30;2.90;;;19.40;99.90;;;;;;10451539;28;20405;-32
2023/10/06 16:32:01;;;;;;;13.93;2.13;;;19.60;99.90;;;;;;10452447;28;20080;-33
2023/10/06 16:37:04;;;;;;;23.00;3.00;;;19.80;99.90;;;;;;10450015;28;20103;-38
2023/10/06 16:42:08;;;;;;;13.23;2.33;;;19.80;99.90;;;;;;10441923;28;20477;-34
2023/10/06 16:47:10;;;;;;;19.58;3.05;;;19.20;99.90;;;;;;10444111;28;20049;-31
2023/10/06 16:52:12;;;;;;;15.32;2.55;;;19.00;99.90;;;;;;10453999;28;20090;-33
2023/10/06 16:57:16;;;;;;;13.82;2.38;;;19.20;99.90;;;;;;10447799;28;20052;-37
2023/10/06 17:02:17;;;;;;;13.50;3.03;;;19.70;99.90;;;;;;10445780;28;20049;-31
2023/10/06 17:07:21;;;;;;;;;;;18.70;99.90;;;;;;10448644;28;20332;-34
2023/10/06 17:12:24;;;;;;;21.08;2.90;;;19.20;99.90;;;;;;10451343;28;19920;-30
2023/10/06 17:17:26;;;;;;;17.95;3.30;;;18.60;99.90;;;;;;10446469;28;20049;-30
2023/10/06 17:22:28;;;;;;;19.52;2.72;;;18.80;99.90;;;;;;10445753;28;20037;-36
2023/10/06 17:27:35;;;;;;;21.50;3.15;;;18.70;99.90;;;;;;10458252;28;20102;-39
2023/10/06 17:32:37;;;;;;;24.13;2.85;;;18.80;99.90;;;;;;10460139;28;20551;-42
2023/10/06 17:37:39;;;;;;;15.13;2.78;;;18.60;99.90;;;;;;10447844;28;20056;-39
2023/10/06 17:42:46;;;;;;;12.10;2.13;;;18.40;99.90;;;;;;10444639;28;20161;-39
2023/10/06 17:47:48;;;;;;;17.50;3.22;;;18.90;99.90;;;;;;10452080;28;20052;-35
2023/10/06 17:52:50;;;;;;;14.73;3.13;;;18.60;99.90;;;;;;10463268;28;20263;-38
2023/10/06 17:57:53;;;;;;;21.50;3.45;;;18.50;99.90;;;;;;10446274;28;20052;-34
2023/10/06 18:02:56;;;;;;;19.38;3.03;;;18.50;99.90;;;;;;10446002;28;20140;-33
2023/10/06 18:07:58;;;;;;;19.15;2.85;;;18.00;99.90;;;;;;10447802;28;20049;-39
2023/10/06 18:13:02;;;;;;;19.35;2.78;;;18.10;99.90;;;;;;10445392;28;20060;-37
2023/10/06 18:18:04;;;;;;;22.02;4.43;;;18.50;99.90;;;;;;10448505;28;20102;-34
2023/10/06 18:23:06;;;;;;;17.77;2.55;;;17.60;99.90;;;;;;10438756;28;20049;-36
2023/10/06 18:28:09;;;;;;;14.18;2.70;;;18.50;99.90;;;;;;10448123;28;20047;-33
2023/10/06 18:33:11;;;;;;;23.55;3.45;;;18.40;99.90;;;;;;10445381;28;20110;-31
2023/10/06 18:38:14;;;;;;;17.70;2.63;;;18.10;99.90;;;;;;10455155;28;20088;-34
2023/10/06 18:43:17;;;;;;;26.73;3.53;;;18.50;99.90;;;;;;10444010;28;20131;-37
2023/10/06 18:48:19;;;;;;;20.92;3.28;;;18.60;99.90;;;;;;10443941;28;20124;-32
2023/10/06 18:53:20;;;;;;;18.47;3.80;;;18.00;99.90;;;;;;10446480;28;20048;-36
2023/10/06 18:58:24;;;;;;;18.57;3.33;;;17.60;99.90;;;;;;10444003;28;20594;-32
2023/10/06 19:03:27;;;;;;;17.50;3.45;;;18.30;99.90;;;;;;10454179;28;20045;-32
2023/10/06 19:08:33;;;;;;;15.52;2.72;;;18.50;99.90;;;;;;10453073;28;20700;-41
2023/10/06 19:13:36;;;;;;;13.10;1.90;;;18.60;99.90;;;;;;10436111;28;20060;-37
2023/10/06 19:18:43;;;;;;;16.48;2.90;;;18.40;99.90;;;;;;10441049;28;20140;-31
2023/10/06 19:23:45;;;;;;;25.67;4.03;;;17.80;99.90;;;;;;10439478;28;20057;-34
2023/10/06 19:28:49;;;;;;;27.40;5.43;;;18.10;99.90;;;;;;10441863;28;20049;-40
2023/10/06 19:33:50;;;;;;;20.52;3.33;;;17.80;99.90;;;;;;10443386;28;20053;-35
2023/10/06 19:38:52;;;;;;;12.80;3.20;;;18.30;99.90;;;;;;10444669;28;20486;-39
2023/10/06 19:43:56;;;;;;;13.23;2.83;;;18.50;99.90;;;;;;10437768;28;20100;-35
2023/10/06 19:48:58;;;;;;;15.38;3.25;;;18.10;99.90;;;;;;10441215;28;20060;-38
2023/10/06 19:53:59;;;;;;;17.50;3.43;;;17.90;99.90;;;;;;10440935;28;20492;-33
2023/10/06 19:59:06;;;;;;;21.40;3.87;;;17.60;99.90;;;;;;10451846;28;20086;-54
2023/10/06 20:04:08;;;;;;;16.85;2.85;;;17.90;99.90;;;;;;10447381;28;20306;-31
2023/10/06 20:09:11;;;;;;;14.53;2.70;;;17.90;99.90;;;;;;10459232;28;20049;-28
2023/10/06 20:14:14;;;;;;;13.30;2.80;;;18.40;99.90;;;;;;10441756;28;20057;-33
2023/10/06 20:19:17;;;;;;;18.63;3.58;;;17.80;99.90;;;;;;10447926;28;20052;-37
2023/10/06 20:24:18;;;;;;;;;;;17.80;99.90;;;;;;10457318;28;20508;-44
2023/10/06 20:29:22;;;;;;;26.20;3.83;;;18.00;99.90;;;;;;10456026;28;20031;-37
2023/10/06 20:34:24;;;;;;;19.80;3.60;;;18.10;99.90;;;;;;10448213;28;20102;-36
2023/10/06 20:39:26;;;;;;;10.90;2.53;;;17.70;99.90;;;;;;10447991;28;20084;-29
2023/10/06 20:44:30;;;;;;;14.48;3.33;;;18.30;99.90;;;;;;10441500;28;20060;-33
2023/10/06 20:49:32;;;;;;;14.98;3.28;;;17.60;99.90;;;;;;10456494;28;20041;-37
2023/10/06 20:54:34;;;;;;;15.30;2.97;;;17.70;99.90;;;;;;10448086;28;20363;-32
2023/10/06 20:59:37;;;;;;;26.37;4.97;;;18.40;99.90;;;;;;10457135;28;20493;-32
2023/10/06 21:04:39;;;;;;;15.15;3.35;;;18.30;99.90;;;;;;10452877;28;20146;-33
2023/10/06 21:09:40;;;;;;;17.27;3.13;;;17.80;99.90;;;;;;10453466;28;20486;-39
2023/10/06 21:14:43;;;;;;;26.27;4.03;;;18.20;99.90;;;;;;10450098;28;20088;-37
2023/10/06 21:19:45;;;;;;;17.55;3.03;;;18.00;99.90;;;;;;10452877;28;20044;-32
2023/10/06 21:24:47;;;;;;;11.53;3.73;;;17.80;99.90;;;;;;10457400;28;20107;-39
2023/10/06 21:29:50;;;;;;;14.50;2.83;;;18.40;99.90;;;;;;10456509;28;20551;-36
2023/10/06 21:34:52;;;;;;;14.43;3.25;;;17.80;99.90;;;;;;10452359;28;20053;-37
2023/10/06 21:39:54;;;;;;;17.80;4.07;;;17.90;99.90;;;;;;10449145;28;20106;-43
2023/10/06 21:44:57;;;;;;;14.50;3.10;;;18.40;99.90;;;;;;10427008;28;20858;-33
2023/10/06 21:49:59;;;;;;;17.60;3.17;;;18.60;99.90;;;;;;10448194;28;20471;-40
2023/10/06 21:55:00;;;;;;;17.87;3.70;;;18.20;99.90;;;;;;10458992;28;20083;-33
2023/10/06 22:00:11;;;;;;;17.87;3.80;;;18.10;99.90;;;;;;10453331;28;20492;-34
2023/10/06 22:05:16;;;;;;;21.88;4.22;;;18.00;99.90;;;;;;10455508;28;20056;-35
2023/10/06 22:10:18;;;;;;;20.52;3.45;;;17.90;99.90;;;;;;10451927;28;20103;-37
2023/10/06 22:15:21;;;;;;;14.07;3.45;;;18.00;99.90;;;;;;10444404;28;20091;-36
2023/10/06 22:20:23;;;;;;;19.50;3.88;;;18.30;99.90;;;;;;10446659;28;20149;-36
2023/10/06 22:25:24;;;;;;;18.67;3.90;;;18.50;99.90;;;;;;10460451;28;20470;-40
2023/10/06 22:30:28;;;;;;;24.67;4.67;;;18.10;99.90;;;;;;10441745;28;20130;-42
2023/10/06 22:35:29;;;;;;;28.88;5.85;;;18.00;99.90;;;;;;10455321;28;20134;-32
2023/10/06 22:40:33;;;;;;;14.47;3.70;;;18.20;99.90;;;;;;10445490;28;20045;-31
2023/10/06 22:45:37;;;;;;;14.15;2.83;;;18.40;99.90;;;;;;10451934;28;20517;-32
2023/10/06 22:50:38;;;;;;;10.48;3.28;;;18.50;99.90;;;;;;10458355;28;20049;-45
2023/10/06 22:55:40;;;;;;;13.15;4.22;;;18.40;99.90;;;;;;10445593;28;20099;-39
2023/10/06 23:00:44;;;;;;;18.63;3.45;;;18.30;99.90;;;;;;10455897;28;20699;-35
2023/10/06 23:05:46;;;;;;;13.65;3.53;;;18.30;99.90;;;;;;10445458;28;20047;-32
2023/10/06 23:10:47;;;;;;;19.17;3.95;;;18.30;99.90;;;;;;10448634;28;20094;-41
2023/10/06 23:15:51;;;;;;;14.50;3.58;;;18.60;99.90;;;;;;10452550;28;20060;-35
2023/10/06 23:20:53;;;;;;;16.02;3.67;;;18.50;99.90;;;;;;10445950;28;20056;-35
2023/10/06 23:25:55;;;;;;;16.73;3.67;;;18.20;99.90;;;;;;10461091;28;20139;-32
2023/10/06 23:30:58;;;;;;;12.60;3.30;;;18.50;99.90;;;;;;10465898;28;20049;-32
2023/10/06 23:36:00;;;;;;;22.00;4.25;;;18.80;99.90;;;;;;10465714;28;20145;-33
2023/10/06 23:41:07;;;;;;;11.90;3.17;;;18.90;99.90;;;;;;10470620;28;20784;-32
2023/10/06 23:46:15;;;;;;;16.65;4.82;;;19.00;99.90;;;;;;10457980;28;20064;-40
2023/10/06 23:51:17;;;;;;;26.35;3.78;;;18.80;99.90;;;;;;10458663;28;20045;-31
2023/10/06 23:56:22;;;;;;;11.30;3.40;;;18.60;99.90;;;;;;10466239;28;20111;-42
